Time;durP1;ratioP1;P1;durP2;ratioP2;P2;SDS_P1;SDS_P2;PMS_P1;PMS_P2;Temp;Humidity;BMP_temperature;BMP_pressure;BME280_temperature;BME280_humidity;BME280_pressure;Samples;Min_cycle;Max_cycle;Signal;HPM_P1;HPM_P2
2022/07/12 00:00:32;;;;;;;;;;;;;;;;;;4863655;29;19937;-86
2022/07/12 00:02:58;;;;;;;;;;;;;;;;;;4849155;29;20017;-86
2022/07/12 00:05:24;;;;;;;;;;;;;;;;;;4853294;29;20005;-86
2022/07/12 00:07:50;;;;;;;;;;;;;;;;;;4859171;29;19923;-86
2022/07/12 00:10:19;;;;;;;;;;;;;;;;;;4845151;29;20678;-86
2022/07/12 00:12:44;;;;;;;;;;;;;;;;;;4844936;29;19931;-86
2022/07/12 00:15:10;;;;;;;;;;;;;;;;;;4864940;29;19927;-87
2022/07/12 00:17:38;;;;;;;;;;;;;;;;;;4859580;29;20286;-87
2022/07/12 00:20:04;;;;;;;;;;;;;;;;;;4847515;29;21534;-87
2022/07/12 00:22:30;;;;;;;;;;;;;;;;;;4857037;29;19935;-87
2022/07/12 00:27:45;;;;;;;;;;;;;;;;;;4866042;29;21245;-87
2022/07/12 00:30:11;;;;;;;;;;;;;;;;;;4859605;29;20355;-86
2022/07/12 00:32:37;;;;;;;;;;;;;;;;;;4857958;29;19923;-86
2022/07/12 00:35:03;;;;;;;;;;;;;;;;;;4856425;29;19927;-86
2022/07/12 00:37:29;;;;;;;;;;;;;;;;;;4859712;29;19934;-86
2022/07/12 00:39:55;;;;;;;;;;;;;;;;;;4850655;29;19927;-86
2022/07/12 00:42:20;;;;;;;;;;;;;;;;;;4855020;29;19931;-87
2022/07/12 00:44:46;;;;;;;;;;;;;;;;;;4870901;29;19974;-86
2022/07/12 00:47:12;;;;;;;;;;;;;;;;;;4854790;29;19934;-86
2022/07/12 00:49:39;;;;;;;;;;;;;;;;;;4854445;29;20010;-86
2022/07/12 00:52:05;;;;;;;;;;;;;;;;;;4845051;29;19982;-86
2022/07/12 00:54:31;;;;;;;;;;;;;;;;;;4850356;29;19926;-86
2022/07/12 00:56:57;;;;;;;;;;;;;;;;;;4857606;29;19946;-86
2022/07/12 00:59:23;;;;;;;;;;;;;;;;;;4846625;29;19931;-86
2022/07/12 01:01:49;;;;;;;;;;;;;;;;;;4860706;29;19931;-87
2022/07/12 01:04:18;;;;;;;;;;;;;;;;;;4847035;29;20028;-86
2022/07/12 01:06:44;;;;;;;;;;;;;;;;;;4846346;29;19935;-87
2022/07/12 01:09:10;;;;;;;;;;;;;;;;;;4861167;29;20294;-86
2022/07/12 01:11:36;;;;;;;;;;;;;;;;;;4868777;29;19931;-87
2022/07/12 01:14:02;;;;;;;;;;;;;;;;;;4847264;29;21776;-86
2022/07/12 01:16:28;;;;;;;;;;;;;;;;;;4841667;29;19934;-86
2022/07/12 01:18:54;;;;;;;;;;;;;;;;;;4854588;29;19970;-86
2022/07/12 01:21:20;;;;;;;;;;;;;;;;;;4846620;29;19935;-87
2022/07/12 01:23:46;;;;;;;;;;;;;;;;;;4842453;29;19958;-87
2022/07/12 01:26:12;;;;;;;;;;;;;;;;;;4859306;29;21604;-86
2022/07/12 01:28:38;;;;;;;;;;;;;;;;;;4852716;29;19931;-86
2022/07/12 01:31:04;;;;;;;;;;;;;;;;;;4844109;29;20890;-86
2022/07/12 01:33:30;;;;;;;;;;;;;;;;;;4849657;29;19935;-86
2022/07/12 01:35:56;;;;;;;;;;;;;;;;;;4847682;29;19938;-86
2022/07/12 01:38:22;;;;;;;;;;;;;;;;;;4861297;29;20259;-86
2022/07/12 01:40:48;;;;;;;;;;;;;;;;;;4841385;29;19934;-86
2022/07/12 01:43:14;;;;;;;;;;;;;;;;;;4863357;29;20302;-87
2022/07/12 01:45:41;;;;;;;;;;;;;;;;;;4863608;29;19935;-87
2022/07/12 01:48:07;;;;;;;;;;;;;;;;;;4846059;29;19927;-87
2022/07/12 01:50:33;;;;;;;;;;;;;;;;;;4848124;29;19986;-86
2022/07/12 01:52:59;;;;;;;;;;;;;;;;;;4855191;29;19937;-87
2022/07/12 01:55:25;;;;;;;;;;;;;;;;;;4863120;29;19931;-86
2022/07/12 01:57:51;;;;;;;;;;;;;;;;;;4843136;29;20025;-87
2022/07/12 02:00:19;;;;;;;;;;;;;;;;;;4846997;29;19975;-86
2022/07/12 02:02:54;;;;;;;;;;;;;;;;;;4842130;29;20044;-87
2022/07/12 02:05:20;;;;;;;;;;;;;;;;;;4850336;29;21061;-87
2022/07/12 02:07:46;;;;;;;;;;;;;;;;;;4856638;29;21141;-87
2022/07/12 02:10:12;;;;;;;;;;;;;;;;;;4884242;29;19927;-87
2022/07/12 02:12:38;;;;;;;;;;;;;;;;;;4879824;29;19923;-87
2022/07/12 02:15:04;;;;;;;;;;;;;;;;;;4857927;29;22477;-87
2022/07/12 02:17:29;;;;;;;;;;;;;;;;;;4858880;29;19927;-86
2022/07/12 02:19:55;;;;;;;;;;;;;;;;;;4848687;29;19931;-87
2022/07/12 02:22:21;;;;;;;;;;;;;;;;;;4855101;29;19931;-87
2022/07/12 02:24:47;;;;;;;;;;;;;;;;;;4865583;29;19970;-87
2022/07/12 02:27:13;;;;;;;;;;;;;;;;;;4871135;29;20390;-86
2022/07/12 02:29:41;;;;;;;;;;;;;;;;;;4861151;29;19931;-86
2022/07/12 02:32:07;;;;;;;;;;;;;;;;;;4870636;29;20008;-86
2022/07/12 02:34:33;;;;;;;;;;;;;;;;;;4854871;29;19966;-86
2022/07/12 02:36:59;;;;;;;;;;;;;;;;;;4846541;29;20003;-86
2022/07/12 02:39:25;;;;;;;;;;;;;;;;;;4853847;29;19931;-86
2022/07/12 02:41:51;;;;;;;;;;;;;;;;;;4850284;29;19937;-86
2022/07/12 02:44:17;;;;;;;;;;;;;;;;;;4869142;29;20267;-86
2022/07/12 02:46:46;;;;;;;;;;;;;;;;;;4855537;29;20605;-86
2022/07/12 02:49:12;;;;;;;;;;;;;;;;;;4854069;29;20002;-86
2022/07/12 02:51:38;;;;;;;;;;;;;;;;;;4846486;29;20374;-86
2022/07/12 02:54:04;;;;;;;;;;;;;;;;;;4859893;29;21925;-86
2022/07/12 02:56:29;;;;;;;;;;;;;;;;;;4860398;29;20018;-86
2022/07/12 02:58:55;;;;;;;;;;;;;;;;;;4842837;29;20434;-86
2022/07/12 03:01:21;;;;;;;;;;;;;;;;;;4843918;29;20378;-86
2022/07/12 03:04:05;;;;;;;;;;;;;;;;;;4842782;29;19927;-87
2022/07/12 03:06:31;;;;;;;;;;;;;;;;;;4849610;29;19927;-87
2022/07/12 03:08:57;;;;;;;;;;;;;;;;;;4840730;29;20355;-86
2022/07/12 03:11:23;;;;;;;;;;;;;;;;;;4845173;29;19934;-87
2022/07/12 03:13:49;;;;;;;;;;;;;;;;;;4867237;29;19930;-86
2022/07/12 03:16:15;;;;;;;;;;;;;;;;;;4865679;29;19931;-86
2022/07/12 03:18:41;;;;;;;;;;;;;;;;;;4844937;29;19935;-86
2022/07/12 03:21:07;;;;;;;;;;;;;;;;;;4840320;29;19933;-86
2022/07/12 03:23:33;;;;;;;;;;;;;;;;;;4871227;29;19927;-86
2022/07/12 03:25:59;;;;;;;;;;;;;;;;;;4850867;29;19963;-86
2022/07/12 03:28:25;;;;;;;;;;;;;;;;;;4840788;29;19935;-86
2022/07/12 03:30:52;;;;;;;;;;;;;;;;;;4837457;29;19935;-86
2022/07/12 03:33:18;;;;;;;;;;;;;;;;;;4831592;29;19927;-86
2022/07/12 03:35:44;;;;;;;;;;;;;;;;;;4840617;29;20639;-86
2022/07/12 03:38:10;;;;;;;;;;;;;;;;;;4825792;29;20371;-86
2022/07/12 03:40:36;;;;;;;;;;;;;;;;;;4840457;29;20371;-86
2022/07/12 03:43:02;;;;;;;;;;;;;;;;;;4842384;29;19947;-86
2022/07/12 03:45:28;;;;;;;;;;;;;;;;;;4827026;29;19932;-87
2022/07/12 03:47:54;;;;;;;;;;;;;;;;;;4828069;29;19933;-86
2022/07/12 03:50:20;;;;;;;;;;;;;;;;;;4821392;29;19931;-87
2022/07/12 03:52:46;;;;;;;;;;;;;;;;;;4838947;29;20306;-87
2022/07/12 03:55:13;;;;;;;;;;;;;;;;;;4830838;29;19931;-86
2022/07/12 03:57:39;;;;;;;;;;;;;;;;;;4847016;29;19928;-86
2022/07/12 04:00:07;;;;;;;;;;;;;;;;;;4842821;29;19998;-86
2022/07/12 04:02:33;;;;;;;;;;;;;;;;;;4842967;29;19939;-86
2022/07/12 04:04:59;;;;;;;;;;;;;;;;;;4826134;29;19924;-86
2022/07/12 04:07:25;;;;;;;;;;;;;;;;;;4846391;29;19933;-86
2022/07/12 04:09:51;;;;;;;;;;;;;;;;;;4825077;29;19975;-86
2022/07/12 04:12:17;;;;;;;;;;;;;;;;;;4852009;29;19931;-86
2022/07/12 04:14:46;;;;;;;;;;;;;;;;;;4837990;29;20414;-86
2022/07/12 04:17:12;;;;;;;;;;;;;;;;;;4837179;29;19947;-86
2022/07/12 04:19:38;;;;;;;;;;;;;;;;;;4857628;29;19924;-86
2022/07/12 04:22:04;;;;;;;;;;;;;;;;;;4839739;29;21875;-86
2022/07/12 04:24:30;;;;;;;;;;;;;;;;;;4838106;29;19927;-87
2022/07/12 04:26:56;;;;;;;;;;;;;;;;;;4849909;29;19935;-86
2022/07/12 04:29:22;;;;;;;;;;;;;;;;;;4855437;29;20445;-87
2022/07/12 04:31:48;;;;;;;;;;;;;;;;;;4867591;29;19929;-86
2022/07/12 04:34:17;;;;;;;;;;;;;;;;;;4849821;29;20398;-87
2022/07/12 04:36:43;;;;;;;;;;;;;;;;;;4854901;29;19939;-86
2022/07/12 04:39:10;;;;;;;;;;;;;;;;;;4870681;29;19926;-87
2022/07/12 04:41:36;;;;;;;;;;;;;;;;;;4856153;29;19983;-86
2022/07/12 04:44:02;;;;;;;;;;;;;;;;;;4868350;29;19926;-87
2022/07/12 04:46:28;;;;;;;;;;;;;;;;;;4871710;29;19924;-87
2022/07/12 04:48:53;;;;;;;;;;;;;;;;;;4878062;29;20005;-86
2022/07/12 04:51:19;;;;;;;;;;;;;;;;;;4864029;29;20018;-87
2022/07/12 04:53:45;;;;;;;;;;;;;;;;;;4859031;29;20388;-87
2022/07/12 04:56:11;;;;;;;;;;;;;;;;;;4862602;29;20350;-87
2022/07/12 04:58:37;;;;;;;;;;;;;;;;;;4849453;29;20744;-86
2022/07/12 05:01:03;;;;;;;;;;;;;;;;;;4857924;29;23463;-86
2022/07/12 05:03:30;;;;;;;;;;;;;;;;;;4845309;29;19923;-86
2022/07/12 05:05:57;;;;;;;;;;;;;;;;;;4862631;29;19923;-86
2022/07/12 05:08:23;;;;;;;;;;;;;;;;;;4859116;29;19931;-88
2022/07/12 05:10:49;;;;;;;;;;;;;;;;;;4861535;29;19928;-88
2022/07/12 05:13:15;;;;;;;;;;;;;;;;;;4848086;29;19923;-87
2022/07/12 05:15:50;;;;;;;;;;;;;;;;;;4864247;29;19978;-88
2022/07/12 05:18:16;;;;;;;;;;;;;;;;;;4862559;29;19938;-88
2022/07/12 05:20:42;;;;;;;;;;;;;;;;;;4848723;29;19927;-88
2022/07/12 05:23:26;;;;;;;;;;;;;;;;;;4864866;29;20022;-88
2022/07/12 05:25:55;;;;;;;;;;;;;;;;;;4841500;29;20335;-89
2022/07/12 05:28:24;;;;;;;;;;;;;;;;;;4865837;29;19927;-89
2022/07/12 05:31:05;;;;;;;;;;;;;;;;;;4851232;29;20359;-89
2022/07/12 05:33:40;;;;;;;;;;;;;;;;;;4848646;29;19934;-89
2022/07/12 05:36:09;;;;;;;;;;;;;;;;;;4877809;29;19931;-89
2022/07/12 05:38:35;;;;;;;;;;;;;;;;;;4871141;29;19986;-89
2022/07/12 05:41:01;;;;;;;;;;;;;;;;;;4838072;29;19935;-89
2022/07/12 05:43:27;;;;;;;;;;;;;;;;;;4865364;29;19935;-88
2022/07/12 05:45:53;;;;;;;;;;;;;;;;;;4846075;29;19943;-89
2022/07/12 05:48:19;;;;;;;;;;;;;;;;;;4866549;29;19974;-89
2022/07/12 05:50:45;;;;;;;;;;;;;;;;;;4877528;29;19931;-90
2022/07/12 05:53:23;;;;;;;;;;;;;;;;;;4865010;29;19931;-89
2022/07/12 05:55:49;;;;;;;;;;;;;;;;;;4859308;29;20017;-89
2022/07/12 05:58:15;;;;;;;;;;;;;;;;;;4844856;29;20334;-86
2022/07/12 06:00:41;;;;;;;;;;;;;;;;;;4865252;29;19930;-86
2022/07/12 06:03:07;;;;;;;;;;;;;;;;;;4840050;29;19930;-86
2022/07/12 06:05:33;;;;;;;;;;;;;;;;;;4867351;29;19930;-87
2022/07/12 06:07:59;;;;;;;;;;;;;;;;;;4842572;29;20017;-87
2022/07/12 06:10:25;;;;;;;;;;;;;;;;;;4846665;29;20820;-87
2022/07/12 06:12:51;;;;;;;;;;;;;;;;;;4845655;29;19923;-86
2022/07/12 06:15:17;;;;;;;;;;;;;;;;;;4843023;29;19932;-86
2022/07/12 06:17:47;;;;;;;;;;;;;;;;;;4847821;29;19927;-86
2022/07/12 06:20:13;;;;;;;;;;;;;;;;;;4864377;29;19923;-86
2022/07/12 06:22:39;;;;;;;;;;;;;;;;;;4869679;29;19935;-86
2022/07/12 06:25:05;;;;;;;;;;;;;;;;;;4864236;29;20009;-87
2022/07/12 06:27:31;;;;;;;;;;;;;;;;;;4871002;29;19938;-86
2022/07/12 06:29:57;;;;;;;;;;;;;;;;;;4866017;29;19931;-86
2022/07/12 06:32:23;;;;;;;;;;;;;;;;;;4866965;29;20687;-86
2022/07/12 06:34:49;;;;;;;;;;;;;;;;;;4855806;29;19923;-87
2022/07/12 06:37:15;;;;;;;;;;;;;;;;;;4850092;29;19938;-86
2022/07/12 06:39:41;;;;;;;;;;;;;;;;;;4870824;29;19971;-86
2022/07/12 06:42:07;;;;;;;;;;;;;;;;;;4863300;29;20375;-87
2022/07/12 06:44:33;;;;;;;;;;;;;;;;;;4870371;29;19934;-86
2022/07/12 06:46:59;;;;;;;;;;;;;;;;;;4866020;29;19928;-86
2022/07/12 06:49:25;;;;;;;;;;;;;;;;;;4865812;29;19926;-86
2022/07/12 06:51:51;;;;;;;;;;;;;;;;;;4864677;29;19971;-86
2022/07/12 06:54:17;;;;;;;;;;;;;;;;;;4847632;29;20138;-86
2022/07/12 06:56:43;;;;;;;;;;;;;;;;;;4844263;29;19931;-86
2022/07/12 06:59:10;;;;;;;;;;;;;;;;;;4844465;29;20453;-86
2022/07/12 07:01:36;;;;;;;;;;;;;;;;;;4851996;29;19935;-87
2022/07/12 07:04:02;;;;;;;;;;;;;;;;;;4846655;29;20426;-86
2022/07/12 07:06:28;;;;;;;;;;;;;;;;;;4845117;29;22754;-86
2022/07/12 07:08:54;;;;;;;;;;;;;;;;;;4852673;29;20018;-86
2022/07/12 07:11:20;;;;;;;;;;;;;;;;;;4845191;29;19939;-86
2022/07/12 07:13:46;;;;;;;;;;;;;;;;;;4852477;29;19927;-87
2022/07/12 07:16:13;;;;;;;;;;;;;;;;;;4844308;29;19931;-86
2022/07/12 07:18:40;;;;;;;;;;;;;;;;;;4841731;29;20014;-86
2022/07/12 07:21:05;;;;;;;;;;;;;;;;;;4854071;29;20449;-86
2022/07/12 07:23:31;;;;;;;;;;;;;;;;;;4858143;29;19927;-87
2022/07/12 07:25:57;;;;;;;;;;;;;;;;;;4837026;29;19983;-86
2022/07/12 07:28:23;;;;;;;;;;;;;;;;;;4861758;29;19923;-86
2022/07/12 07:30:52;;;;;;;;;;;;;;;;;;4844090;29;19938;-87
2022/07/12 07:33:18;;;;;;;;;;;;;;;;;;4851120;29;19924;-86
2022/07/12 07:35:47;;;;;;;;;;;;;;;;;;4849189;29;20409;-86
2022/07/12 07:38:13;;;;;;;;;;;;;;;;;;4862682;29;19927;-86
2022/07/12 07:40:39;;;;;;;;;;;;;;;;;;4842546;29;20718;-86
2022/07/12 07:43:05;;;;;;;;;;;;;;;;;;4844851;29;20470;-86
2022/07/12 07:45:31;;;;;;;;;;;;;;;;;;4839456;29;19934;-86
2022/07/12 07:47:57;;;;;;;;;;;;;;;;;;4860303;29;19978;-88
2022/07/12 07:50:23;;;;;;;;;;;;;;;;;;4850861;29;19923;-85
2022/07/12 07:52:51;;;;;;;;;;;;;;;;;;4850146;29;22014;-86
2022/07/12 07:55:17;;;;;;;;;;;;;;;;;;4891726;29;19927;-85
2022/07/12 07:57:43;;;;;;;;;;;;;;;;;;4854775;29;20504;-85
2022/07/12 08:00:09;;;;;;;;;;;;;;;;;;4866560;29;20259;-86
2022/07/12 08:02:35;;;;;;;;;;;;;;;;;;4862887;29;19958;-85
2022/07/12 08:05:01;;;;;;;;;;;;;;;;;;4859603;29;20022;-86
2022/07/12 08:07:27;;;;;;;;;;;;;;;;;;4870104;29;20071;-87
2022/07/12 08:09:53;;;;;;;;;;;;;;;;;;4876391;29;19934;-86
2022/07/12 08:12:19;;;;;;;;;;;;;;;;;;4853494;29;19932;-86
2022/07/12 08:14:45;;;;;;;;;;;;;;;;;;4855846;29;20356;-87
2022/07/12 08:17:11;;;;;;;;;;;;;;;;;;4856305;29;20022;-86
2022/07/12 08:19:37;;;;;;;;;;;;;;;;;;4869254;29;19932;-86
2022/07/12 08:22:03;;;;;;;;;;;;;;;;;;4867059;29;19931;-86
2022/07/12 08:24:29;;;;;;;;;;;;;;;;;;4874164;29;19923;-86
2022/07/12 08:26:57;;;;;;;;;;;;;;;;;;4855768;29;20166;-86
2022/07/12 08:29:23;;;;;;;;;;;;;;;;;;4857119;29;20383;-86
2022/07/12 08:31:49;;;;;;;;;;;;;;;;;;4852508;29;19931;-86
2022/07/12 08:34:15;;;;;;;;;;;;;;;;;;4866853;29;19932;-86
2022/07/12 08:36:41;;;;;;;;;;;;;;;;;;4868537;29;19923;-87
2022/07/12 08:39:07;;;;;;;;;;;;;;;;;;4857347;29;19930;-86
2022/07/12 08:41:33;;;;;;;;;;;;;;;;;;4859232;29;20503;-86
2022/07/12 08:43:59;;;;;;;;;;;;;;;;;;4853474;29;20326;-87
2022/07/12 08:46:25;;;;;;;;;;;;;;;;;;4888958;29;19927;-86
2022/07/12 08:48:51;;;;;;;;;;;;;;;;;;4863646;29;19931;-86
2022/07/12 08:51:17;;;;;;;;;;;;;;;;;;4858631;29;19939;-86
2022/07/12 08:53:42;;;;;;;;;;;;;;;;;;4868450;29;19934;-87
2022/07/12 08:56:11;;;;;;;;;;;;;;;;;;4857893;29;19930;-86
2022/07/12 08:58:39;;;;;;;;;;;;;;;;;;4882503;29;19923;-86
2022/07/12 09:01:06;;;;;;;;;;;;;;;;;;4874304;29;19977;-86
2022/07/12 09:03:32;;;;;;;;;;;;;;;;;;4853609;29;19942;-86
2022/07/12 09:05:58;;;;;;;;;;;;;;;;;;4850472;29;19927;-87
2022/07/12 09:08:25;;;;;;;;;;;;;;;;;;4855599;29;19931;-86
2022/07/12 09:10:58;;;;;;;;;;;;;;;;;;4853335;29;20790;-86
2022/07/12 09:13:24;;;;;;;;;;;;;;;;;;4851246;29;19923;-87
2022/07/12 09:15:50;;;;;;;;;;;;;;;;;;4865580;29;20323;-87
2022/07/12 09:18:18;;;;;;;;;;;;;;;;;;4844022;29;20367;-86
2022/07/12 09:20:43;;;;;;;;;;;;;;;;;;4855837;29;19926;-86
2022/07/12 09:23:09;;;;;;;;;;;;;;;;;;4877194;29;20402;-86
2022/07/12 09:25:35;;;;;;;;;;;;;;;;;;4859330;29;19958;-86
2022/07/12 09:28:01;;;;;;;;;;;;;;;;;;4856370;29;19938;-86
2022/07/12 09:30:27;;;;;;;;;;;;;;;;;;4866774;29;20527;-86
2022/07/12 09:38:23;;;;;;;;;;;;;;;;;;4891205;29;19923;-86
2022/07/12 09:40:49;;;;;;;;;;;;;;;;;;4854782;29;19938;-86
2022/07/12 09:43:15;;;;;;;;;;;;;;;;;;4870492;29;20418;-87
2022/07/12 09:45:43;;;;;;;;;;;;;;;;;;4865069;29;19978;-86
2022/07/12 09:48:11;;;;;;;;;;;;;;;;;;4864788;29;20018;-86
2022/07/12 09:50:37;;;;;;;;;;;;;;;;;;4881907;29;19957;-86
2022/07/12 09:53:03;;;;;;;;;;;;;;;;;;4871795;29;20285;-86
2022/07/12 09:55:29;;;;;;;;;;;;;;;;;;4877846;29;19923;-86
2022/07/12 09:57:55;;;;;;;;;;;;;;;;;;4871765;29;20264;-86
2022/07/12 10:00:21;;;;;;;;;;;;;;;;;;4851015;29;19935;-86
2022/07/12 10:02:47;;;;;;;;;;;;;;;;;;4850790;29;20299;-86
2022/07/12 10:05:13;;;;;;;;;;;;;;;;;;4876788;29;19934;-87
2022/07/12 10:07:39;;;;;;;;;;;;;;;;;;4876795;29;19927;-86
2022/07/12 10:10:05;;;;;;;;;;;;;;;;;;4873470;29;19939;-86
2022/07/12 10:12:31;;;;;;;;;;;;;;;;;;4859774;29;20468;-86
2022/07/12 10:14:57;;;;;;;;;;;;;;;;;;4845873;29;20046;-86
2022/07/12 10:17:23;;;;;;;;;;;;;;;;;;4850558;29;19962;-86
2022/07/12 10:19:49;;;;;;;;;;;;;;;;;;4849983;29;19934;-86
2022/07/12 10:22:15;;;;;;;;;;;;;;;;;;4869230;29;20287;-86
2022/07/12 10:24:41;;;;;;;;;;;;;;;;;;4898574;29;19936;-87
2022/07/12 10:27:07;;;;;;;;;;;;;;;;;;4859047;29;19927;-86
2022/07/12 10:29:33;;;;;;;;;;;;;;;;;;4851257;29;19923;-86
2022/07/12 10:31:59;;;;;;;;;;;;;;;;;;4845563;29;19933;-86
2022/07/12 10:34:27;;;;;;;;;;;;;;;;;;4864229;29;20014;-87
2022/07/12 10:36:53;;;;;;;;;;;;;;;;;;4862968;29;19927;-86
2022/07/12 10:39:19;;;;;;;;;;;;;;;;;;4852408;29;19945;-86
2022/07/12 10:41:45;;;;;;;;;;;;;;;;;;4864305;29;20065;-87
2022/07/12 10:44:11;;;;;;;;;;;;;;;;;;4851263;29;19961;-87
2022/07/12 10:46:38;;;;;;;;;;;;;;;;;;4865954;29;20477;-86
2022/07/12 10:49:03;;;;;;;;;;;;;;;;;;4847574;29;19931;-87
2022/07/12 10:51:29;;;;;;;;;;;;;;;;;;4850887;29;20390;-87
2022/07/12 10:53:55;;;;;;;;;;;;;;;;;;4855315;29;19987;-86
2022/07/12 10:56:22;;;;;;;;;;;;;;;;;;4868693;29;20310;-87
2022/07/12 10:58:48;;;;;;;;;;;;;;;;;;4846206;29;19927;-86
2022/07/12 11:01:14;;;;;;;;;;;;;;;;;;4852394;29;22358;-87
2022/07/12 11:03:43;;;;;;;;;;;;;;;;;;4859568;29;19931;-86
2022/07/12 11:06:09;;;;;;;;;;;;;;;;;;4854612;29;19930;-87
2022/07/12 11:08:35;;;;;;;;;;;;;;;;;;4870427;29;19930;-87
2022/07/12 11:11:01;;;;;;;;;;;;;;;;;;4868741;29;19934;-87
2022/07/12 11:13:28;;;;;;;;;;;;;;;;;;4872191;29;19923;-87
2022/07/12 11:15:54;;;;;;;;;;;;;;;;;;4852955;29;19927;-86
2022/07/12 11:18:20;;;;;;;;;;;;;;;;;;4856107;29;20405;-86
2022/07/12 11:20:46;;;;;;;;;;;;;;;;;;4847992;29;20285;-86
2022/07/12 11:23:12;;;;;;;;;;;;;;;;;;4857216;29;19942;-86
2022/07/12 11:25:37;;;;;;;;;;;;;;;;;;4872878;29;19935;-87
2022/07/12 11:28:04;;;;;;;;;;;;;;;;;;4881568;29;21001;-87
2022/07/12 11:30:33;;;;;;;;;;;;;;;;;;4875333;29;20033;-87
2022/07/12 11:32:59;;;;;;;;;;;;;;;;;;4866376;29;19928;-87
2022/07/12 11:35:25;;;;;;;;;;;;;;;;;;4855254;29;19927;-87
2022/07/12 11:37:51;;;;;;;;;;;;;;;;;;4879476;29;20034;-87
2022/07/12 11:40:17;;;;;;;;;;;;;;;;;;4870545;29;19939;-87
2022/07/12 11:42:46;;;;;;;;;;;;;;;;;;4852473;29;20030;-87
2022/07/12 11:45:12;;;;;;;;;;;;;;;;;;4873121;29;20026;-86
2022/07/12 11:47:38;;;;;;;;;;;;;;;;;;4855348;29;19979;-86
2022/07/12 11:50:04;;;;;;;;;;;;;;;;;;4851069;29;20124;-86
2022/07/12 11:52:30;;;;;;;;;;;;;;;;;;4864054;29;19935;-86
2022/07/12 11:54:56;;;;;;;;;;;;;;;;;;4857964;29;19930;-86
2022/07/12 11:57:22;;;;;;;;;;;;;;;;;;4853251;29;20304;-86
2022/07/12 11:59:47;;;;;;;;;;;;;;;;;;4863593;29;19927;-86
2022/07/12 12:02:15;;;;;;;;;;;;;;;;;;4854143;29;20026;-86
2022/07/12 12:04:40;;;;;;;;;;;;;;;;;;4850979;29;19927;-86
2022/07/12 12:07:06;;;;;;;;;;;;;;;;;;4840137;29;19931;-87
2022/07/12 12:09:32;;;;;;;;;;;;;;;;;;4848121;29;19939;-87
2022/07/12 12:11:59;;;;;;;;;;;;;;;;;;4860554;29;20022;-86
2022/07/12 12:14:25;;;;;;;;;;;;;;;;;;4857217;29;19926;-88
2022/07/12 12:16:52;;;;;;;;;;;;;;;;;;4876145;29;19931;-88
2022/07/12 12:19:18;;;;;;;;;;;;;;;;;;4880822;29;19987;-87
2022/07/12 12:21:44;;;;;;;;;;;;;;;;;;4863535;29;19927;-88
2022/07/12 12:24:10;;;;;;;;;;;;;;;;;;4860870;29;20327;-88
2022/07/12 12:26:36;;;;;;;;;;;;;;;;;;4866069;29;19990;-88
2022/07/12 12:29:02;;;;;;;;;;;;;;;;;;4880545;29;19927;-87
2022/07/12 12:31:28;;;;;;;;;;;;;;;;;;4904880;29;20031;-87
2022/07/12 12:33:56;;;;;;;;;;;;;;;;;;4881363;29;20006;-88
2022/07/12 12:36:22;;;;;;;;;;;;;;;;;;4906861;29;20045;-88
2022/07/12 12:38:48;;;;;;;;;;;;;;;;;;4901750;29;20005;-88
2022/07/12 12:41:14;;;;;;;;;;;;;;;;;;4898904;29;19931;-88
2022/07/12 12:43:40;;;;;;;;;;;;;;;;;;4888366;29;19943;-88
2022/07/12 12:46:06;;;;;;;;;;;;;;;;;;4884178;29;20291;-88
2022/07/12 12:48:32;;;;;;;;;;;;;;;;;;4881050;29;19924;-88
2022/07/12 12:50:58;;;;;;;;;;;;;;;;;;4883249;29;19926;-88
2022/07/12 12:53:24;;;;;;;;;;;;;;;;;;4882739;29;19927;-87
2022/07/12 12:55:50;;;;;;;;;;;;;;;;;;4877319;29;19923;-89
2022/07/12 12:58:16;;;;;;;;;;;;;;;;;;4890138;29;19954;-88
2022/07/12 13:00:42;;;;;;;;;;;;;;;;;;4909902;29;19927;-86
2022/07/12 13:03:08;;;;;;;;;;;;;;;;;;4868013;29;19927;-86
2022/07/12 13:05:34;;;;;;;;;;;;;;;;;;4882619;29;20396;-86
2022/07/12 13:08:00;;;;;;;;;;;;;;;;;;4897141;29;19923;-88
2022/07/12 13:10:26;;;;;;;;;;;;;;;;;;4901798;29;19958;-88
2022/07/12 13:12:52;;;;;;;;;;;;;;;;;;4878376;29;20014;-87
2022/07/12 13:15:18;;;;;;;;;;;;;;;;;;4899489;29;19927;-87
2022/07/12 13:17:44;;;;;;;;;;;;;;;;;;4904023;29;19930;-88
2022/07/12 13:20:12;;;;;;;;;;;;;;;;;;4903907;29;19931;-88
2022/07/12 13:22:38;;;;;;;;;;;;;;;;;;4907290;29;19974;-87
2022/07/12 13:25:04;;;;;;;;;;;;;;;;;;4894795;29;19982;-87
2022/07/12 13:27:30;;;;;;;;;;;;;;;;;;4876355;29;19931;-87
2022/07/12 13:29:56;;;;;;;;;;;;;;;;;;4887592;29;19923;-87
2022/07/12 13:32:22;;;;;;;;;;;;;;;;;;4885353;29;19934;-87
2022/07/12 13:34:48;;;;;;;;;;;;;;;;;;4894144;29;19986;-87
2022/07/12 13:37:14;;;;;;;;;;;;;;;;;;4883324;29;19927;-87
2022/07/12 13:42:25;;;;;;;;;;;;;;;;;;4884381;29;20073;-87
2022/07/12 13:44:51;;;;;;;;;;;;;;;;;;4875038;29;19979;-88
2022/07/12 13:47:16;;;;;;;;;;;;;;;;;;4887687;29;19923;-88
2022/07/12 13:49:42;;;;;;;;;;;;;;;;;;4881218;29;19935;-87
2022/07/12 13:52:08;;;;;;;;;;;;;;;;;;4898263;29;20009;-88
2022/07/12 13:54:34;;;;;;;;;;;;;;;;;;4896251;29;19928;-87
2022/07/12 13:57:00;;;;;;;;;;;;;;;;;;4897568;29;19938;-88
2022/07/12 13:59:26;;;;;;;;;;;;;;;;;;4900057;29;20344;-88
2022/07/12 14:01:53;;;;;;;;;;;;;;;;;;4862351;29;19979;-88
2022/07/12 14:04:19;;;;;;;;;;;;;;;;;;4897951;29;19989;-87
2022/07/12 14:06:46;;;;;;;;;;;;;;;;;;4864181;29;20383;-88
2022/07/12 14:09:12;;;;;;;;;;;;;;;;;;4860426;29;19927;-87
2022/07/12 14:11:38;;;;;;;;;;;;;;;;;;4868302;29;19931;-87
2022/07/12 14:14:04;;;;;;;;;;;;;;;;;;4876114;29;19931;-87
2022/07/12 14:16:30;;;;;;;;;;;;;;;;;;4895823;29;19962;-87
2022/07/12 14:18:56;;;;;;;;;;;;;;;;;;4879274;29;19930;-88
2022/07/12 14:21:22;;;;;;;;;;;;;;;;;;4881125;29;19927;-88
2022/07/12 14:23:48;;;;;;;;;;;;;;;;;;4883285;29;20014;-87
2022/07/12 14:26:14;;;;;;;;;;;;;;;;;;4886793;29;19934;-87
2022/07/12 14:28:40;;;;;;;;;;;;;;;;;;4873865;29;19927;-88
2022/07/12 14:31:05;;;;;;;;;;;;;;;;;;4880230;29;19931;-87
2022/07/12 14:33:31;;;;;;;;;;;;;;;;;;4896027;29;20338;-87
2022/07/12 14:35:57;;;;;;;;;;;;;;;;;;4875558;29;20284;-88
2022/07/12 14:38:23;;;;;;;;;;;;;;;;;;4883289;29;19927;-87
2022/07/12 14:40:49;;;;;;;;;;;;;;;;;;4892857;29;19994;-88
2022/07/12 14:43:16;;;;;;;;;;;;;;;;;;4877375;29;19931;-88
2022/07/12 14:45:42;;;;;;;;;;;;;;;;;;4882653;29;20010;-88
2022/07/12 14:48:08;;;;;;;;;;;;;;;;;;4893365;29;20400;-87
2022/07/12 14:53:52;;;;;;;;;;;;;;;;;;4851804;29;20021;-88
2022/07/12 14:56:18;;;;;;;;;;;;;;;;;;4889746;29;20493;-88
2022/07/12 14:58:44;;;;;;;;;;;;;;;;;;4876261;29;19935;-89
2022/07/12 15:01:10;;;;;;;;;;;;;;;;;;4859596;29;20361;-88
2022/07/12 15:03:36;;;;;;;;;;;;;;;;;;4861172;29;19931;-88
2022/07/12 15:06:02;;;;;;;;;;;;;;;;;;4859489;29;19931;-89
2022/07/12 15:08:28;;;;;;;;;;;;;;;;;;4872225;29;19974;-88
2022/07/12 15:10:53;;;;;;;;;;;;;;;;;;4874325;29;20362;-88
2022/07/12 15:13:19;;;;;;;;;;;;;;;;;;4857783;29;19989;-88
2022/07/12 15:15:45;;;;;;;;;;;;;;;;;;4848193;29;19927;-89
2022/07/12 15:18:11;;;;;;;;;;;;;;;;;;4869726;29;19989;-88
2022/07/12 15:20:37;;;;;;;;;;;;;;;;;;4853253;29;19958;-88
2022/07/12 15:23:03;;;;;;;;;;;;;;;;;;4868780;29;19935;-87
2022/07/12 15:25:29;;;;;;;;;;;;;;;;;;4856224;29;19939;-88
2022/07/12 15:27:55;;;;;;;;;;;;;;;;;;4881579;29;19931;-88
2022/07/12 15:30:21;;;;;;;;;;;;;;;;;;4883327;29;19939;-88
2022/07/12 15:32:49;;;;;;;;;;;;;;;;;;4859365;29;19934;-88
2022/07/12 15:35:15;;;;;;;;;;;;;;;;;;4884792;29;20271;-88
2022/07/12 15:37:41;;;;;;;;;;;;;;;;;;4886003;29;19931;-88
2022/07/12 15:40:16;;;;;;;;;;;;;;;;;;4886587;29;19927;-88
2022/07/12 15:42:41;;;;;;;;;;;;;;;;;;4852247;29;19932;-88
2022/07/12 15:45:07;;;;;;;;;;;;;;;;;;4845692;29;19937;-89
2022/07/12 15:47:34;;;;;;;;;;;;;;;;;;4868115;29;19967;-88
2022/07/12 15:50:00;;;;;;;;;;;;;;;;;;4858325;29;20568;-89
2022/07/12 15:55:11;;;;;;;;;;;;;;;;;;4867443;29;20069;-88
2022/07/12 15:57:37;;;;;;;;;;;;;;;;;;4839577;29;19934;-88
2022/07/12 16:00:03;;;;;;;;;;;;;;;;;;4837690;29;19928;-88
2022/07/12 16:02:30;;;;;;;;;;;;;;;;;;4842479;29;19935;-89
2022/07/12 16:04:56;;;;;;;;;;;;;;;;;;4827807;29;19938;-89
2022/07/12 16:07:22;;;;;;;;;;;;;;;;;;4853061;29;19931;-90
2022/07/12 16:09:48;;;;;;;;;;;;;;;;;;4851442;29;19986;-88
2022/07/12 16:12:14;;;;;;;;;;;;;;;;;;4867452;29;20202;-89
2022/07/12 16:14:40;;;;;;;;;;;;;;;;;;4859588;29;19924;-89
2022/07/12 16:17:06;;;;;;;;;;;;;;;;;;4869389;29;22151;-88
2022/07/12 16:19:32;;;;;;;;;;;;;;;;;;4864766;29;20359;-89
2022/07/12 16:21:58;;;;;;;;;;;;;;;;;;4858393;29;20543;-89
2022/07/12 16:24:23;;;;;;;;;;;;;;;;;;4863547;29;19938;-89
2022/07/12 16:26:49;;;;;;;;;;;;;;;;;;4839069;29;19931;-87
2022/07/12 16:29:15;;;;;;;;;;;;;;;;;;4861270;29;19931;-89
2022/07/12 16:31:41;;;;;;;;;;;;;;;;;;4851412;29;19982;-88
2022/07/12 16:34:07;;;;;;;;;;;;;;;;;;4868229;29;19938;-89
2022/07/12 16:36:33;;;;;;;;;;;;;;;;;;4875552;29;21776;-89
2022/07/12 16:38:59;;;;;;;;;;;;;;;;;;4873446;29;19989;-89
2022/07/12 16:41:25;;;;;;;;;;;;;;;;;;4876784;29;19927;-89
2022/07/12 16:43:51;;;;;;;;;;;;;;;;;;4875849;29;20025;-89
2022/07/12 16:46:17;;;;;;;;;;;;;;;;;;4859900;29;19931;-89
2022/07/12 16:48:43;;;;;;;;;;;;;;;;;;4851770;29;19932;-90
2022/07/12 16:51:22;;;;;;;;;;;;;;;;;;4839481;29;20638;-88
2022/07/12 16:53:52;;;;;;;;;;;;;;;;;;4872080;29;19931;-89
2022/07/12 16:56:18;;;;;;;;;;;;;;;;;;4855560;29;19962;-89